sensor_id;sensor_type;location;lat;lon;timestamp;temperature;humidity
70269;DHT22;58514;48.398;-4.274;2023-03-01T00:00:11;5.80;92.00
70269;DHT22;58514;48.398;-4.274;2023-03-01T00:02:37;5.90;91.80
70269;DHT22;58514;48.398;-4.274;2023-03-01T00:05:02;5.90;91.60
70269;DHT22;58514;48.398;-4.274;2023-03-01T00:07:28;5.90;91.70
70269;DHT22;58514;48.398;-4.274;2023-03-01T00:09:55;5.90;91.60
70269;DHT22;58514;48.398;-4.274;2023-03-01T00:12:20;5.90;91.70
70269;DHT22;58514;48.398;-4.274;2023-03-01T00:14:46;5.90;91.90
70269;DHT22;58514;48.398;-4.274;2023-03-01T00:17:11;5.90;92.10
70269;DHT22;58514;48.398;-4.274;2023-03-01T00:19:37;5.90;91.40
70269;DHT22;58514;48.398;-4.274;2023-03-01T00:22:02;5.90;91.30
70269;DHT22;58514;48.398;-4.274;2023-03-01T00:24:28;5.90;91.90
70269;DHT22;58514;48.398;-4.274;2023-03-01T00:26:54;5.80;91.40
70269;DHT22;58514;48.398;-4.274;2023-03-01T00:29:21;5.80;91.30
70269;DHT22;58514;48.398;-4.274;2023-03-01T00:31:47;5.70;91.70
70269;DHT22;58514;48.398;-4.274;2023-03-01T00:34:12;5.70;91.30
70269;DHT22;58514;48.398;-4.274;2023-03-01T00:36:38;5.70;91.30
70269;DHT22;58514;48.398;-4.274;2023-03-01T00:39:04;5.70;91.70
70269;DHT22;58514;48.398;-4.274;2023-03-01T00:41:30;5.60;91.70
70269;DHT22;58514;48.398;-4.274;2023-03-01T00:43:56;5.70;92.80
70269;DHT22;58514;48.398;-4.274;2023-03-01T00:46:23;5.70;92.40
70269;DHT22;58514;48.398;-4.274;2023-03-01T00:48:49;5.70;92.80
70269;DHT22;58514;48.398;-4.274;2023-03-01T00:51:23;5.70;92.40
70269;DHT22;58514;48.398;-4.274;2023-03-01T00:53:55;5.70;92.50
70269;DHT22;58514;48.398;-4.274;2023-03-01T00:56:22;5.60;91.70
70269;DHT22;58514;48.398;-4.274;2023-03-01T00:58:47;5.60;92.20
70269;DHT22;58514;48.398;-4.274;2023-03-01T01:01:15;5.60;92.10
70269;DHT22;58514;48.398;-4.274;2023-03-01T01:03:54;5.50;91.70
70269;DHT22;58514;48.398;-4.274;2023-03-01T01:06:24;5.50;92.40
70269;DHT22;58514;48.398;-4.274;2023-03-01T01:08:50;5.50;93.00
70269;DHT22;58514;48.398;-4.274;2023-03-01T01:11:16;5.40;92.50
70269;DHT22;58514;48.398;-4.274;2023-03-01T01:13:43;5.40;92.40
70269;DHT22;58514;48.398;-4.274;2023-03-01T01:16:09;5.40;92.30
70269;DHT22;58514;48.398;-4.274;2023-03-01T01:18:34;5.30;92.60
70269;DHT22;58514;48.398;-4.274;2023-03-01T01:21:19;5.30;92.40
70269;DHT22;58514;48.398;-4.274;2023-03-01T01:23:45;5.20;92.70
70269;DHT22;58514;48.398;-4.274;2023-03-01T01:26:19;5.20;91.90
70269;DHT22;58514;48.398;-4.274;2023-03-01T01:28:45;5.10;92.30
70269;DHT22;58514;48.398;-4.274;2023-03-01T01:31:10;5.00;92.10
70269;DHT22;58514;48.398;-4.274;2023-03-01T01:33:36;4.90;91.80
70269;DHT22;58514;48.398;-4.274;2023-03-01T01:36:03;4.90;91.80
70269;DHT22;58514;48.398;-4.274;2023-03-01T01:38:28;4.80;91.90
70269;DHT22;58514;48.398;-4.274;2023-03-01T01:40:54;4.70;92.00
70269;DHT22;58514;48.398;-4.274;2023-03-01T01:43:30;4.70;92.50
70269;DHT22;58514;48.398;-4.274;2023-03-01T01:46:15;4.60;92.60
70269;DHT22;58514;48.398;-4.274;2023-03-01T01:48:43;4.60;92.20
70269;DHT22;58514;48.398;-4.274;2023-03-01T01:51:14;4.50;92.20
70269;DHT22;58514;48.398;-4.274;2023-03-01T01:53:40;4.50;92.40
70269;DHT22;58514;48.398;-4.274;2023-03-01T01:56:08;4.50;92.60
70269;DHT22;58514;48.398;-4.274;2023-03-01T01:58:34;4.40;92.80
70269;DHT22;58514;48.398;-4.274;2023-03-01T02:01:01;4.40;92.70
70269;DHT22;58514;48.398;-4.274;2023-03-01T02:03:27;4.40;93.30
70269;DHT22;58514;48.398;-4.274;2023-03-01T02:06:00;4.40;93.10
70269;DHT22;58514;48.398;-4.274;2023-03-01T02:08:29;4.30;93.10
70269;DHT22;58514;48.398;-4.274;2023-03-01T02:10:56;4.30;92.70
70269;DHT22;58514;48.398;-4.274;2023-03-01T02:13:22;4.30;92.90
70269;DHT22;58514;48.398;-4.274;2023-03-01T02:15:48;4.20;92.50
70269;DHT22;58514;48.398;-4.274;2023-03-01T02:18:14;4.20;93.10
70269;DHT22;58514;48.398;-4.274;2023-03-01T02:20:49;4.10;93.50
70269;DHT22;58514;48.398;-4.274;2023-03-01T02:23:15;4.10;93.10
70269;DHT22;58514;48.398;-4.274;2023-03-01T02:25:58;4.00;92.60
70269;DHT22;58514;48.398;-4.274;2023-03-01T02:28:32;4.00;92.50
70269;DHT22;58514;48.398;-4.274;2023-03-01T02:30:58;4.00;92.40
70269;DHT22;58514;48.398;-4.274;2023-03-01T02:33:43;3.90;92.40
70269;DHT22;58514;48.398;-4.274;2023-03-01T02:36:10;3.80;92.50
70269;DHT22;58514;48.398;-4.274;2023-03-01T02:38:39;3.70;92.80
70269;DHT22;58514;48.398;-4.274;2023-03-01T02:41:05;3.70;92.60
70269;DHT22;58514;48.398;-4.274;2023-03-01T02:43:32;3.70;92.60
70269;DHT22;58514;48.398;-4.274;2023-03-01T02:45:59;3.60;92.30
70269;DHT22;58514;48.398;-4.274;2023-03-01T02:48:27;3.60;92.40
70269;DHT22;58514;48.398;-4.274;2023-03-01T02:50:57;3.50;92.70
70269;DHT22;58514;48.398;-4.274;2023-03-01T02:53:48;3.50;92.80
70269;DHT22;58514;48.398;-4.274;2023-03-01T02:56:18;3.50;92.20
70269;DHT22;58514;48.398;-4.274;2023-03-01T02:58:44;3.40;92.50
70269;DHT22;58514;48.398;-4.274;2023-03-01T03:01:13;3.40;93.40
70269;DHT22;58514;48.398;-4.274;2023-03-01T03:03:40;3.40;92.70
70269;DHT22;58514;48.398;-4.274;2023-03-01T03:06:06;3.40;92.20
70269;DHT22;58514;48.398;-4.274;2023-03-01T03:08:32;3.40;92.90
70269;DHT22;58514;48.398;-4.274;2023-03-01T03:10:58;3.30;92.80
70269;DHT22;58514;48.398;-4.274;2023-03-01T03:13:24;3.30;92.60
70269;DHT22;58514;48.398;-4.274;2023-03-01T03:15:55;3.30;92.80
70269;DHT22;58514;48.398;-4.274;2023-03-01T03:18:22;3.30;92.70
70269;DHT22;58514;48.398;-4.274;2023-03-01T03:20:51;3.30;93.30
70269;DHT22;58514;48.398;-4.274;2023-03-01T03:23:20;3.30;92.90
70269;DHT22;58514;48.398;-4.274;2023-03-01T03:25:48;3.30;92.90
70269;DHT22;58514;48.398;-4.274;2023-03-01T03:28:14;3.20;92.50
70269;DHT22;58514;48.398;-4.274;2023-03-01T03:30:41;3.20;93.30
70269;DHT22;58514;48.398;-4.274;2023-03-01T03:33:07;3.20;93.10
70269;DHT22;58514;48.398;-4.274;2023-03-01T03:35:34;3.20;93.40
70269;DHT22;58514;48.398;-4.274;2023-03-01T03:38:04;3.20;93.80
70269;DHT22;58514;48.398;-4.274;2023-03-01T03:40:41;3.20;93.40
70269;DHT22;58514;48.398;-4.274;2023-03-01T03:43:12;3.20;93.50
70269;DHT22;58514;48.398;-4.274;2023-03-01T03:45:38;3.20;93.50
70269;DHT22;58514;48.398;-4.274;2023-03-01T03:48:04;3.20;93.00
70269;DHT22;58514;48.398;-4.274;2023-03-01T03:50:30;3.20;93.20
70269;DHT22;58514;48.398;-4.274;2023-03-01T03:52:56;3.10;92.70
70269;DHT22;58514;48.398;-4.274;2023-03-01T03:55:22;3.10;92.80
70269;DHT22;58514;48.398;-4.274;2023-03-01T03:57:48;3.10;92.80
70269;DHT22;58514;48.398;-4.274;2023-03-01T04:00:21;3.10;94.10
70269;DHT22;58514;48.398;-4.274;2023-03-01T04:02:50;3.10;93.10
70269;DHT22;58514;48.398;-4.274;2023-03-01T04:05:17;3.10;93.00
70269;DHT22;58514;48.398;-4.274;2023-03-01T04:07:44;3.00;93.30
70269;DHT22;58514;48.398;-4.274;2023-03-01T04:10:13;3.00;93.00
70269;DHT22;58514;48.398;-4.274;2023-03-01T04:12:39;3.00;92.70
70269;DHT22;58514;48.398;-4.274;2023-03-01T04:15:06;3.00;92.80
70269;DHT22;58514;48.398;-4.274;2023-03-01T04:17:43;2.90;93.50
70269;DHT22;58514;48.398;-4.274;2023-03-01T04:20:30;2.90;93.60
70269;DHT22;58514;48.398;-4.274;2023-03-01T04:22:59;2.90;93.50
70269;DHT22;58514;48.398;-4.274;2023-03-01T04:25:26;2.90;93.90
70269;DHT22;58514;48.398;-4.274;2023-03-01T04:27:52;2.90;93.30
70269;DHT22;58514;48.398;-4.274;2023-03-01T04:30:17;2.90;92.90
70269;DHT22;58514;48.398;-4.274;2023-03-01T04:32:43;2.90;93.80
70269;DHT22;58514;48.398;-4.274;2023-03-01T04:35:09;2.90;94.00
70269;DHT22;58514;48.398;-4.274;2023-03-01T04:37:34;3.00;94.00
70269;DHT22;58514;48.398;-4.274;2023-03-01T04:40:02;3.00;94.00
70269;DHT22;58514;48.398;-4.274;2023-03-01T04:42:37;2.90;93.40
70269;DHT22;58514;48.398;-4.274;2023-03-01T04:45:03;2.90;93.50
70269;DHT22;58514;48.398;-4.274;2023-03-01T04:47:42;2.90;94.20
70269;DHT22;58514;48.398;-4.274;2023-03-01T04:50:10;2.90;93.90
70269;DHT22;58514;48.398;-4.274;2023-03-01T04:52:36;2.90;93.90
70269;DHT22;58514;48.398;-4.274;2023-03-01T04:55:03;2.90;94.10
70269;DHT22;58514;48.398;-4.274;2023-03-01T04:57:29;2.90;94.00
70269;DHT22;58514;48.398;-4.274;2023-03-01T04:59:55;2.90;94.10
70269;DHT22;58514;48.398;-4.274;2023-03-01T05:02:20;2.90;94.30
70269;DHT22;58514;48.398;-4.274;2023-03-01T05:04:46;2.90;94.30
70269;DHT22;58514;48.398;-4.274;2023-03-01T05:07:12;2.90;94.30
70269;DHT22;58514;48.398;-4.274;2023-03-01T05:09:38;2.90;93.90
70269;DHT22;58514;48.398;-4.274;2023-03-01T05:12:04;2.90;93.70
70269;DHT22;58514;48.398;-4.274;2023-03-01T05:14:30;2.90;93.90
70269;DHT22;58514;48.398;-4.274;2023-03-01T05:16:56;2.80;94.20
70269;DHT22;58514;48.398;-4.274;2023-03-01T05:19:29;2.80;93.60
70269;DHT22;58514;48.398;-4.274;2023-03-01T05:21:59;2.80;93.80
70269;DHT22;58514;48.398;-4.274;2023-03-01T05:24:31;2.70;93.90
70269;DHT22;58514;48.398;-4.274;2023-03-01T05:26:57;2.80;94.00
70269;DHT22;58514;48.398;-4.274;2023-03-01T05:29:24;2.70;93.10
70269;DHT22;58514;48.398;-4.274;2023-03-01T05:32:08;2.60;93.00
70269;DHT22;58514;48.398;-4.274;2023-03-01T05:34:35;2.50;93.10
70269;DHT22;58514;48.398;-4.274;2023-03-01T05:37:02;2.40;93.10
70269;DHT22;58514;48.398;-4.274;2023-03-01T05:39:28;2.40;93.70
70269;DHT22;58514;48.398;-4.274;2023-03-01T05:41:55;2.40;93.60
70269;DHT22;58514;48.398;-4.274;2023-03-01T05:44:21;2.40;94.00
70269;DHT22;58514;48.398;-4.274;2023-03-01T05:46:47;2.40;94.00
70269;DHT22;58514;48.398;-4.274;2023-03-01T05:49:13;2.40;94.00
70269;DHT22;58514;48.398;-4.274;2023-03-01T05:51:40;2.50;94.10
70269;DHT22;58514;48.398;-4.274;2023-03-01T05:54:06;2.50;93.90
70269;DHT22;58514;48.398;-4.274;2023-03-01T05:56:33;2.50;93.40
70269;DHT22;58514;48.398;-4.274;2023-03-01T05:59:00;2.50;93.80
70269;DHT22;58514;48.398;-4.274;2023-03-01T06:01:26;2.40;94.20
70269;DHT22;58514;48.398;-4.274;2023-03-01T06:03:51;2.40;94.30
70269;DHT22;58514;48.398;-4.274;2023-03-01T06:06:17;2.50;94.10
70269;DHT22;58514;48.398;-4.274;2023-03-01T06:08:43;2.40;93.00
70269;DHT22;58514;48.398;-4.274;2023-03-01T06:11:09;2.40;93.80
70269;DHT22;58514;48.398;-4.274;2023-03-01T06:13:35;2.40;93.40
70269;DHT22;58514;48.398;-4.274;2023-03-01T06:16:04;2.30;94.00
70269;DHT22;58514;48.398;-4.274;2023-03-01T06:18:31;2.30;93.90
70269;DHT22;58514;48.398;-4.274;2023-03-01T06:20:56;2.30;94.20
70269;DHT22;58514;48.398;-4.274;2023-03-01T06:23:23;2.30;93.70
70269;DHT22;58514;48.398;-4.274;2023-03-01T06:25:49;2.30;94.00
70269;DHT22;58514;48.398;-4.274;2023-03-01T06:28:15;2.30;94.10
70269;DHT22;58514;48.398;-4.274;2023-03-01T06:30:41;2.30;93.80
70269;DHT22;58514;48.398;-4.274;2023-03-01T06:33:06;2.30;93.70
70269;DHT22;58514;48.398;-4.274;2023-03-01T06:35:32;2.30;94.10
70269;DHT22;58514;48.398;-4.274;2023-03-01T06:38:00;2.30;94.00
70269;DHT22;58514;48.398;-4.274;2023-03-01T06:40:26;2.30;93.70
70269;DHT22;58514;48.398;-4.274;2023-03-01T06:42:51;2.20;94.10
70269;DHT22;58514;48.398;-4.274;2023-03-01T06:45:18;2.20;94.10
70269;DHT22;58514;48.398;-4.274;2023-03-01T06:47:45;2.20;94.00
70269;DHT22;58514;48.398;-4.274;2023-03-01T06:50:11;2.20;93.90
70269;DHT22;58514;48.398;-4.274;2023-03-01T06:52:38;2.20;94.20
70269;DHT22;58514;48.398;-4.274;2023-03-01T06:55:04;2.20;93.80
70269;DHT22;58514;48.398;-4.274;2023-03-01T06:57:30;2.20;94.00
70269;DHT22;58514;48.398;-4.274;2023-03-01T06:59:55;2.10;93.50
70269;DHT22;58514;48.398;-4.274;2023-03-01T07:02:21;2.10;93.50
70269;DHT22;58514;48.398;-4.274;2023-03-01T07:04:49;2.10;93.50
70269;DHT22;58514;48.398;-4.274;2023-03-01T07:07:15;2.10;94.10
70269;DHT22;58514;48.398;-4.274;2023-03-01T07:09:44;2.10;94.10
70269;DHT22;58514;48.398;-4.274;2023-03-01T07:12:09;2.00;94.00
70269;DHT22;58514;48.398;-4.274;2023-03-01T07:14:35;2.00;93.70
70269;DHT22;58514;48.398;-4.274;2023-03-01T07:17:01;2.10;93.80
70269;DHT22;58514;48.398;-4.274;2023-03-01T07:19:26;2.10;94.30
70269;DHT22;58514;48.398;-4.274;2023-03-01T07:21:52;2.10;94.20
70269;DHT22;58514;48.398;-4.274;2023-03-01T07:24:18;2.10;93.40
70269;DHT22;58514;48.398;-4.274;2023-03-01T07:26:43;2.10;93.60
70269;DHT22;58514;48.398;-4.274;2023-03-01T07:29:10;2.10;94.20
70269;DHT22;58514;48.398;-4.274;2023-03-01T07:31:36;2.10;94.00
70269;DHT22;58514;48.398;-4.274;2023-03-01T07:34:02;2.10;93.90
70269;DHT22;58514;48.398;-4.274;2023-03-01T07:36:28;2.20;94.00
70269;DHT22;58514;48.398;-4.274;2023-03-01T07:38:53;2.20;93.60
70269;DHT22;58514;48.398;-4.274;2023-03-01T07:41:21;2.20;93.40
70269;DHT22;58514;48.398;-4.274;2023-03-01T07:43:47;2.20;94.00
70269;DHT22;58514;48.398;-4.274;2023-03-01T07:46:12;2.20;93.90
70269;DHT22;58514;48.398;-4.274;2023-03-01T07:48:38;2.30;95.00
70269;DHT22;58514;48.398;-4.274;2023-03-01T07:51:05;2.40;94.70
70269;DHT22;58514;48.398;-4.274;2023-03-01T07:53:32;2.40;94.30
70269;DHT22;58514;48.398;-4.274;2023-03-01T07:56:03;2.50;94.10
70269;DHT22;58514;48.398;-4.274;2023-03-01T07:58:28;2.60;94.20
70269;DHT22;58514;48.398;-4.274;2023-03-01T08:00:54;2.70;95.30
70269;DHT22;58514;48.398;-4.274;2023-03-01T08:03:19;2.80;94.90
70269;DHT22;58514;48.398;-4.274;2023-03-01T08:05:45;2.80;94.50
70269;DHT22;58514;48.398;-4.274;2023-03-01T08:08:10;2.90;94.70
70269;DHT22;58514;48.398;-4.274;2023-03-01T08:10:36;3.00;94.90
70269;DHT22;58514;48.398;-4.274;2023-03-01T08:13:02;3.10;95.00
70269;DHT22;58514;48.398;-4.274;2023-03-01T08:15:27;3.20;94.90
70269;DHT22;58514;48.398;-4.274;2023-03-01T08:17:53;3.30;94.80
70269;DHT22;58514;48.398;-4.274;2023-03-01T08:20:18;3.30;94.10
70269;DHT22;58514;48.398;-4.274;2023-03-01T08:22:44;3.30;94.20
70269;DHT22;58514;48.398;-4.274;2023-03-01T08:25:09;3.40;93.80
70269;DHT22;58514;48.398;-4.274;2023-03-01T08:27:35;3.30;93.90
70269;DHT22;58514;48.398;-4.274;2023-03-01T08:30:01;3.40;94.40
70269;DHT22;58514;48.398;-4.274;2023-03-01T08:32:26;3.40;95.00
70269;DHT22;58514;48.398;-4.274;2023-03-01T08:34:52;3.50;94.70
70269;DHT22;58514;48.398;-4.274;2023-03-01T08:37:17;3.60;94.80
70269;DHT22;58514;48.398;-4.274;2023-03-01T08:39:43;3.70;94.90
70269;DHT22;58514;48.398;-4.274;2023-03-01T08:42:08;3.80;94.90
70269;DHT22;58514;48.398;-4.274;2023-03-01T08:44:34;3.90;94.70
70269;DHT22;58514;48.398;-4.274;2023-03-01T08:47:00;4.10;95.00
70269;DHT22;58514;48.398;-4.274;2023-03-01T08:49:27;4.30;95.90
70269;DHT22;58514;48.398;-4.274;2023-03-01T08:51:53;4.60;97.50
70269;DHT22;58514;48.398;-4.274;2023-03-01T08:54:19;4.90;99.70
70269;DHT22;58514;48.398;-4.274;2023-03-01T08:56:45;5.40;99.90
70269;DHT22;58514;48.398;-4.274;2023-03-01T08:59:11;5.90;99.90
70269;DHT22;58514;48.398;-4.274;2023-03-01T09:01:37;6.40;99.90
70269;DHT22;58514;48.398;-4.274;2023-03-01T09:04:03;6.90;99.90
70269;DHT22;58514;48.398;-4.274;2023-03-01T09:06:32;7.40;99.90
70269;DHT22;58514;48.398;-4.274;2023-03-01T09:08:58;7.90;99.90
70269;DHT22;58514;48.398;-4.274;2023-03-01T09:11:24;8.20;99.90
70269;DHT22;58514;48.398;-4.274;2023-03-01T09:13:50;8.50;99.90
70269;DHT22;58514;48.398;-4.274;2023-03-01T09:16:16;8.60;98.70
70269;DHT22;58514;48.398;-4.274;2023-03-01T09:18:43;8.70;98.00
70269;DHT22;58514;48.398;-4.274;2023-03-01T09:21:13;8.80;98.00
70269;DHT22;58514;48.398;-4.274;2023-03-01T09:23:43;8.90;98.10
70269;DHT22;58514;48.398;-4.274;2023-03-01T09:26:10;9.10;97.40
70269;DHT22;58514;48.398;-4.274;2023-03-01T09:28:36;9.30;96.00
70269;DHT22;58514;48.398;-4.274;2023-03-01T09:31:02;9.30;95.20
70269;DHT22;58514;48.398;-4.274;2023-03-01T09:33:28;9.20;94.30
70269;DHT22;58514;48.398;-4.274;2023-03-01T09:35:58;9.10;93.90
70269;DHT22;58514;48.398;-4.274;2023-03-01T09:38:23;9.00;93.00
70269;DHT22;58514;48.398;-4.274;2023-03-01T09:40:49;9.00;94.10
70269;DHT22;58514;48.398;-4.274;2023-03-01T09:45:49;9.00;93.40
70269;DHT22;58514;48.398;-4.274;2023-03-01T09:48:16;9.00;93.10
70269;DHT22;58514;48.398;-4.274;2023-03-01T09:50:43;9.00;93.90
70269;DHT22;58514;48.398;-4.274;2023-03-01T09:53:15;9.00;94.00
70269;DHT22;58514;48.398;-4.274;2023-03-01T09:55:45;9.00;93.00
70269;DHT22;58514;48.398;-4.274;2023-03-01T10:00:49;8.50;90.90
70269;DHT22;58514;48.398;-4.274;2023-03-01T10:08:48;7.90;90.40
70269;DHT22;58514;48.398;-4.274;2023-03-01T10:11:20;7.70;91.50
70269;DHT22;58514;48.398;-4.274;2023-03-01T10:13:48;7.60;91.70
70269;DHT22;58514;48.398;-4.274;2023-03-01T10:16:40;7.60;92.20
70269;DHT22;58514;48.398;-4.274;2023-03-01T10:19:03;7.60;92.40
70269;DHT22;58514;48.398;-4.274;2023-03-01T10:21:30;7.60;93.00
70269;DHT22;58514;48.398;-4.274;2023-03-01T10:24:10;7.70;93.10
70269;DHT22;58514;48.398;-4.274;2023-03-01T10:29:18;7.90;92.90
70269;DHT22;58514;48.398;-4.274;2023-03-01T10:31:50;7.90;93.20
70269;DHT22;58514;48.398;-4.274;2023-03-01T10:34:20;8.00;92.50
70269;DHT22;58514;48.398;-4.274;2023-03-01T10:36:52;8.00;93.30
70269;DHT22;58514;48.398;-4.274;2023-03-01T10:39:19;8.10;93.30
70269;DHT22;58514;48.398;-4.274;2023-03-01T10:42:02;8.20;92.90
70269;DHT22;58514;48.398;-4.274;2023-03-01T10:44:35;8.30;93.20
70269;DHT22;58514;48.398;-4.274;2023-03-01T10:47:01;8.40;93.40
70269;DHT22;58514;48.398;-4.274;2023-03-01T10:49:27;8.50;92.30
70269;DHT22;58514;48.398;-4.274;2023-03-01T10:51:53;8.60;92.90
70269;DHT22;58514;48.398;-4.274;2023-03-01T10:54:25;8.60;92.60
70269;DHT22;58514;48.398;-4.274;2023-03-01T10:56:53;8.70;92.40
70269;DHT22;58514;48.398;-4.274;2023-03-01T10:59:34;8.80;92.70
70269;DHT22;58514;48.398;-4.274;2023-03-01T11:02:04;8.80;91.00
70269;DHT22;58514;48.398;-4.274;2023-03-01T11:04:38;8.70;91.10
70269;DHT22;58514;48.398;-4.274;2023-03-01T11:07:04;8.60;90.90
70269;DHT22;58514;48.398;-4.274;2023-03-01T11:09:31;8.50;90.60
70269;DHT22;58514;48.398;-4.274;2023-03-01T11:12:03;8.40;90.30
70269;DHT22;58514;48.398;-4.274;2023-03-01T11:14:38;8.20;90.70
70269;DHT22;58514;48.398;-4.274;2023-03-01T11:17:13;8.20;91.00
70269;DHT22;58514;48.398;-4.274;2023-03-01T11:19:40;8.20;90.40
70269;DHT22;58514;48.398;-4.274;2023-03-01T11:22:07;8.20;90.40
70269;DHT22;58514;48.398;-4.274;2023-03-01T11:24:40;8.30;91.20
70269;DHT22;58514;48.398;-4.274;2023-03-01T11:27:40;8.50;92.30
70269;DHT22;58514;48.398;-4.274;2023-03-01T11:29:59;9.00;93.90
70269;DHT22;58514;48.398;-4.274;2023-03-01T11:32:28;9.50;92.60
70269;DHT22;58514;48.398;-4.274;2023-03-01T11:35:00;9.90;93.90
70269;DHT22;58514;48.398;-4.274;2023-03-01T11:37:35;10.40;93.60
70269;DHT22;58514;48.398;-4.274;2023-03-01T11:45:11;12.40;98.00
70269;DHT22;58514;48.398;-4.274;2023-03-01T12:22:57;14.80;76.90
70269;DHT22;58514;48.398;-4.274;2023-03-01T12:25:34;14.50;78.00
70269;DHT22;58514;48.398;-4.274;2023-03-01T12:33:17;15.00;86.40
70269;DHT22;58514;48.398;-4.274;2023-03-01T12:35:50;15.10;81.80
70269;DHT22;58514;48.398;-4.274;2023-03-01T12:43:33;14.80;73.60
70269;DHT22;58514;48.398;-4.274;2023-03-01T12:49:08;14.30;75.80
70269;DHT22;58514;48.398;-4.274;2023-03-01T12:51:34;14.00;75.80
70269;DHT22;58514;48.398;-4.274;2023-03-01T12:54:01;14.00;75.70
70269;DHT22;58514;48.398;-4.274;2023-03-01T12:56:30;14.00;75.80
70269;DHT22;58514;48.398;-4.274;2023-03-01T12:59:02;14.20;79.60
70269;DHT22;58514;48.398;-4.274;2023-03-01T13:04:32;14.60;75.80
70269;DHT22;58514;48.398;-4.274;2023-03-01T13:12:41;14.10;74.60
70269;DHT22;58514;48.398;-4.274;2023-03-01T13:14:50;13.90;73.10
70269;DHT22;58514;48.398;-4.274;2023-03-01T13:17:29;13.60;73.70
70269;DHT22;58514;48.398;-4.274;2023-03-01T13:19:56;13.30;71.00
70269;DHT22;58514;48.398;-4.274;2023-03-01T13:22:25;13.00;72.50
70269;DHT22;58514;48.398;-4.274;2023-03-01T13:25:00;12.70;71.30
70269;DHT22;58514;48.398;-4.274;2023-03-01T13:27:26;12.50;74.60
70269;DHT22;58514;48.398;-4.274;2023-03-01T13:29:58;12.40;72.50
70269;DHT22;58514;48.398;-4.274;2023-03-01T13:32:34;12.10;74.20
70269;DHT22;58514;48.398;-4.274;2023-03-01T13:37:44;11.80;75.30
70269;DHT22;58514;48.398;-4.274;2023-03-01T13:42:47;11.40;71.80
70269;DHT22;58514;48.398;-4.274;2023-03-01T13:45:15;11.20;73.40
70269;DHT22;58514;48.398;-4.274;2023-03-01T13:47:42;11.00;74.10
70269;DHT22;58514;48.398;-4.274;2023-03-01T13:50:15;10.90;73.00
70269;DHT22;58514;48.398;-4.274;2023-03-01T13:52:43;10.80;74.30
70269;DHT22;58514;48.398;-4.274;2023-03-01T13:57:55;10.60;72.60
70269;DHT22;58514;48.398;-4.274;2023-03-01T14:06:04;10.40;75.50
70269;DHT22;58514;48.398;-4.274;2023-03-01T14:08:34;10.50;75.30
70269;DHT22;58514;48.398;-4.274;2023-03-01T14:11:04;10.50;74.60
70269;DHT22;58514;48.398;-4.274;2023-03-01T14:18:36;10.20;74.10
70269;DHT22;58514;48.398;-4.274;2023-03-01T14:21:07;10.00;74.70
70269;DHT22;58514;48.398;-4.274;2023-03-01T14:23:33;9.90;74.10
70269;DHT22;58514;48.398;-4.274;2023-03-01T14:26:00;9.80;75.30
70269;DHT22;58514;48.398;-4.274;2023-03-01T14:30:53;9.50;75.60
70269;DHT22;58514;48.398;-4.274;2023-03-01T14:36:01;9.30;75.40
70269;DHT22;58514;48.398;-4.274;2023-03-01T14:38:34;9.20;75.30
70269;DHT22;58514;48.398;-4.274;2023-03-01T14:41:02;9.10;75.30
70269;DHT22;58514;48.398;-4.274;2023-03-01T14:43:28;8.90;76.10
70269;DHT22;58514;48.398;-4.274;2023-03-01T14:45:54;8.90;77.60
70269;DHT22;58514;48.398;-4.274;2023-03-01T14:48:20;8.80;76.10
70269;DHT22;58514;48.398;-4.274;2023-03-01T14:50:46;8.80;78.00
70269;DHT22;58514;48.398;-4.274;2023-03-01T14:53:15;8.80;77.70
70269;DHT22;58514;48.398;-4.274;2023-03-01T14:55:42;8.90;77.80
70269;DHT22;58514;48.398;-4.274;2023-03-01T14:58:12;8.90;78.70
70269;DHT22;58514;48.398;-4.274;2023-03-01T15:00:38;8.90;77.20
70269;DHT22;58514;48.398;-4.274;2023-03-01T15:03:14;8.90;76.20
70269;DHT22;58514;48.398;-4.274;2023-03-01T15:05:42;8.80;77.10
70269;DHT22;58514;48.398;-4.274;2023-03-01T15:08:11;8.80;76.70
70269;DHT22;58514;48.398;-4.274;2023-03-01T15:10:54;8.70;77.20
70269;DHT22;58514;48.398;-4.274;2023-03-01T15:13:24;8.70;77.10
70269;DHT22;58514;48.398;-4.274;2023-03-01T15:15:53;8.70;76.50
70269;DHT22;58514;48.398;-4.274;2023-03-01T15:18:26;8.70;77.70
70269;DHT22;58514;48.398;-4.274;2023-03-01T15:20:53;8.60;78.10
70269;DHT22;58514;48.398;-4.274;2023-03-01T15:23:25;8.60;77.60
70269;DHT22;58514;48.398;-4.274;2023-03-01T15:25:52;8.60;77.90
70269;DHT22;58514;48.398;-4.274;2023-03-01T15:28:25;8.60;79.20
70269;DHT22;58514;48.398;-4.274;2023-03-01T15:30:56;8.70;78.90
70269;DHT22;58514;48.398;-4.274;2023-03-01T15:35:48;8.60;77.60
70269;DHT22;58514;48.398;-4.274;2023-03-01T15:38:31;8.60;77.70
70269;DHT22;58514;48.398;-4.274;2023-03-01T15:40:58;8.40;76.80
70269;DHT22;58514;48.398;-4.274;2023-03-01T15:43:40;8.40;77.50
70269;DHT22;58514;48.398;-4.274;2023-03-01T15:46:17;8.40;78.00
70269;DHT22;58514;48.398;-4.274;2023-03-01T15:48:44;8.40;77.70
70269;DHT22;58514;48.398;-4.274;2023-03-01T15:51:10;8.30;78.40
70269;DHT22;58514;48.398;-4.274;2023-03-01T15:53:38;8.30;78.00
70269;DHT22;58514;48.398;-4.274;2023-03-01T15:56:03;8.30;80.00
70269;DHT22;58514;48.398;-4.274;2023-03-01T15:58:30;8.20;77.90
70269;DHT22;58514;48.398;-4.274;2023-03-01T16:00:57;8.20;77.80
70269;DHT22;58514;48.398;-4.274;2023-03-01T16:03:24;8.20;77.50
70269;DHT22;58514;48.398;-4.274;2023-03-01T16:05:50;8.10;77.50
70269;DHT22;58514;48.398;-4.274;2023-03-01T16:08:16;8.10;77.90
70269;DHT22;58514;48.398;-4.274;2023-03-01T16:10:42;8.10;78.30
70269;DHT22;58514;48.398;-4.274;2023-03-01T16:13:14;8.10;78.40
70269;DHT22;58514;48.398;-4.274;2023-03-01T16:15:39;8.00;80.20
70269;DHT22;58514;48.398;-4.274;2023-03-01T16:18:05;8.00;78.20
70269;DHT22;58514;48.398;-4.274;2023-03-01T16:20:31;8.00;77.10
70269;DHT22;58514;48.398;-4.274;2023-03-01T16:23:00;7.90;76.90
70269;DHT22;58514;48.398;-4.274;2023-03-01T16:25:26;7.80;77.50
70269;DHT22;58514;48.398;-4.274;2023-03-01T16:27:51;7.80;78.00
70269;DHT22;58514;48.398;-4.274;2023-03-01T16:30:19;7.80;79.30
70269;DHT22;58514;48.398;-4.274;2023-03-01T16:32:45;7.80;78.40
70269;DHT22;58514;48.398;-4.274;2023-03-01T16:35:11;7.80;77.90
70269;DHT22;58514;48.398;-4.274;2023-03-01T16:37:37;7.80;78.00
70269;DHT22;58514;48.398;-4.274;2023-03-01T16:40:03;7.80;77.80
70269;DHT22;58514;48.398;-4.274;2023-03-01T16:42:33;7.80;78.10
70269;DHT22;58514;48.398;-4.274;2023-03-01T16:44:58;7.80;78.10
70269;DHT22;58514;48.398;-4.274;2023-03-01T16:47:24;7.80;77.40
70269;DHT22;58514;48.398;-4.274;2023-03-01T16:49:52;7.70;78.70
70269;DHT22;58514;48.398;-4.274;2023-03-01T16:52:18;7.70;79.00
70269;DHT22;58514;48.398;-4.274;2023-03-01T16:54:44;7.70;78.20
70269;DHT22;58514;48.398;-4.274;2023-03-01T16:57:10;7.70;78.20
70269;DHT22;58514;48.398;-4.274;2023-03-01T16:59:35;7.70;78.00
70269;DHT22;58514;48.398;-4.274;2023-03-01T17:02:02;7.70;78.40
70269;DHT22;58514;48.398;-4.274;2023-03-01T17:04:28;7.70;78.40
70269;DHT22;58514;48.398;-4.274;2023-03-01T17:06:53;7.60;78.10
70269;DHT22;58514;48.398;-4.274;2023-03-01T17:09:19;7.70;78.40
70269;DHT22;58514;48.398;-4.274;2023-03-01T17:11:47;7.60;79.20
70269;DHT22;58514;48.398;-4.274;2023-03-01T17:14:13;7.60;79.00
70269;DHT22;58514;48.398;-4.274;2023-03-01T17:16:40;7.60;79.50